sensor_id;sensor_type;location;lat;lon;timestamp;temperature;humidity
49236;DHT22;35067;48.134;8.378;2023-06-14T00:00:45;10.50;54.50
49236;DHT22;35067;48.134;8.378;2023-06-14T00:01:46;10.50;55.50
49236;DHT22;35067;48.134;8.378;2023-06-14T00:02:47;10.40;54.60
49236;DHT22;35067;48.134;8.378;2023-06-14T00:03:48;10.30;55.30
49236;DHT22;35067;48.134;8.378;2023-06-14T00:04:49;10.10;55.30
49236;DHT22;35067;48.134;8.378;2023-06-14T00:05:52;10.00;55.50
49236;DHT22;35067;48.134;8.378;2023-06-14T00:06:55;9.90;55.90
49236;DHT22;35067;48.134;8.378;2023-06-14T00:07:56;9.90;55.90
49236;DHT22;35067;48.134;8.378;2023-06-14T00:08:58;10.00;55.90
49236;DHT22;35067;48.134;8.378;2023-06-14T00:09:58;9.90;55.90
49236;DHT22;35067;48.134;8.378;2023-06-14T00:10:59;10.00;55.90
49236;DHT22;35067;48.134;8.378;2023-06-14T00:12:00;10.00;55.90
49236;DHT22;35067;48.134;8.378;2023-06-14T00:13:02;10.10;55.90
49236;DHT22;35067;48.134;8.378;2023-06-14T00:14:04;10.20;56.00
49236;DHT22;35067;48.134;8.378;2023-06-14T00:15:06;10.20;55.60
49236;DHT22;35067;48.134;8.378;2023-06-14T00:16:09;10.20;56.60
49236;DHT22;35067;48.134;8.378;2023-06-14T00:17:10;10.20;55.60
49236;DHT22;35067;48.134;8.378;2023-06-14T00:18:11;10.20;55.80
49236;DHT22;35067;48.134;8.378;2023-06-14T00:19:12;10.20;56.90
49236;DHT22;35067;48.134;8.378;2023-06-14T00:20:13;10.10;55.70
49236;DHT22;35067;48.134;8.378;2023-06-14T00:21:13;10.20;55.80
49236;DHT22;35067;48.134;8.378;2023-06-14T00:22:14;10.10;55.90
49236;DHT22;35067;48.134;8.378;2023-06-14T00:23:15;10.10;56.10
49236;DHT22;35067;48.134;8.378;2023-06-14T00:24:16;10.10;56.80
49236;DHT22;35067;48.134;8.378;2023-06-14T00:25:17;10.10;56.70
49236;DHT22;35067;48.134;8.378;2023-06-14T00:26:18;10.10;56.80
49236;DHT22;35067;48.134;8.378;2023-06-14T00:27:18;10.00;56.60
49236;DHT22;35067;48.134;8.378;2023-06-14T00:28:19;10.00;56.50
49236;DHT22;35067;48.134;8.378;2023-06-14T00:29:20;10.00;57.00
49236;DHT22;35067;48.134;8.378;2023-06-14T00:30:21;10.00;56.60
49236;DHT22;35067;48.134;8.378;2023-06-14T00:31:22;10.00;56.50
49236;DHT22;35067;48.134;8.378;2023-06-14T00:32:23;10.00;56.30
49236;DHT22;35067;48.134;8.378;2023-06-14T00:33:26;9.90;56.50
49236;DHT22;35067;48.134;8.378;2023-06-14T00:34:27;9.90;57.00
49236;DHT22;35067;48.134;8.378;2023-06-14T00:35:28;9.60;57.70
49236;DHT22;35067;48.134;8.378;2023-06-14T00:36:28;9.70;58.00
49236;DHT22;35067;48.134;8.378;2023-06-14T00:37:29;9.70;57.90
49236;DHT22;35067;48.134;8.378;2023-06-14T00:38:30;9.70;57.90
49236;DHT22;35067;48.134;8.378;2023-06-14T00:39:30;9.70;57.70
49236;DHT22;35067;48.134;8.378;2023-06-14T00:40:31;9.80;57.50
49236;DHT22;35067;48.134;8.378;2023-06-14T00:41:32;9.70;57.20
49236;DHT22;35067;48.134;8.378;2023-06-14T00:42:33;9.70;56.90
49236;DHT22;35067;48.134;8.378;2023-06-14T00:43:34;9.80;56.70
49236;DHT22;35067;48.134;8.378;2023-06-14T00:44:35;9.80;56.70
49236;DHT22;35067;48.134;8.378;2023-06-14T00:45:36;9.80;56.60
49236;DHT22;35067;48.134;8.378;2023-06-14T00:46:36;9.80;56.50
49236;DHT22;35067;48.134;8.378;2023-06-14T00:47:38;9.80;56.80
49236;DHT22;35067;48.134;8.378;2023-06-14T00:48:42;9.90;57.10
49236;DHT22;35067;48.134;8.378;2023-06-14T00:49:51;9.90;57.00
49236;DHT22;35067;48.134;8.378;2023-06-14T00:50:54;9.90;57.10
49236;DHT22;35067;48.134;8.378;2023-06-14T00:51:55;9.90;57.10
49236;DHT22;35067;48.134;8.378;2023-06-14T00:52:56;9.90;57.00
49236;DHT22;35067;48.134;8.378;2023-06-14T00:53:58;9.90;57.50
49236;DHT22;35067;48.134;8.378;2023-06-14T00:54:59;9.80;57.30
49236;DHT22;35067;48.134;8.378;2023-06-14T00:56:00;9.80;57.40
49236;DHT22;35067;48.134;8.378;2023-06-14T00:57:00;9.80;57.80
49236;DHT22;35067;48.134;8.378;2023-06-14T00:58:01;9.80;58.00
49236;DHT22;35067;48.134;8.378;2023-06-14T00:59:03;9.80;58.10
49236;DHT22;35067;48.134;8.378;2023-06-14T01:00:04;9.80;58.20
49236;DHT22;35067;48.134;8.378;2023-06-14T01:01:11;9.70;58.50
49236;DHT22;35067;48.134;8.378;2023-06-14T01:02:12;9.60;58.80
49236;DHT22;35067;48.134;8.378;2023-06-14T01:03:15;9.70;58.80
49236;DHT22;35067;48.134;8.378;2023-06-14T01:04:19;9.70;58.60
49236;DHT22;35067;48.134;8.378;2023-06-14T01:05:20;9.70;58.80
49236;DHT22;35067;48.134;8.378;2023-06-14T01:06:34;9.70;58.30
49236;DHT22;35067;48.134;8.378;2023-06-14T01:11:20;9.70;58.20
49236;DHT22;35067;48.134;8.378;2023-06-14T01:13:43;9.60;58.40
49236;DHT22;35067;48.134;8.378;2023-06-14T01:14:47;9.60;58.60
49236;DHT22;35067;48.134;8.378;2023-06-14T01:15:49;9.60;58.80
49236;DHT22;35067;48.134;8.378;2023-06-14T01:16:50;9.60;60.40
49236;DHT22;35067;48.134;8.378;2023-06-14T01:17:53;9.50;59.70
49236;DHT22;35067;48.134;8.378;2023-06-14T01:18:58;9.50;59.90
49236;DHT22;35067;48.134;8.378;2023-06-14T01:20:01;9.50;59.90
49236;DHT22;35067;48.134;8.378;2023-06-14T01:21:03;9.50;60.20
49236;DHT22;35067;48.134;8.378;2023-06-14T01:22:07;9.50;60.00
49236;DHT22;35067;48.134;8.378;2023-06-14T01:23:08;9.40;60.00
49236;DHT22;35067;48.134;8.378;2023-06-14T01:24:09;9.40;60.10
49236;DHT22;35067;48.134;8.378;2023-06-14T01:25:11;9.40;60.10
49236;DHT22;35067;48.134;8.378;2023-06-14T01:26:12;9.40;60.20
49236;DHT22;35067;48.134;8.378;2023-06-14T01:27:13;9.30;60.20
49236;DHT22;35067;48.134;8.378;2023-06-14T01:28:16;9.20;60.80
49236;DHT22;35067;48.134;8.378;2023-06-14T01:29:16;9.10;60.70
49236;DHT22;35067;48.134;8.378;2023-06-14T01:30:21;9.30;60.70
49236;DHT22;35067;48.134;8.378;2023-06-14T01:31:24;9.30;61.80
49236;DHT22;35067;48.134;8.378;2023-06-14T01:32:27;9.30;60.70
49236;DHT22;35067;48.134;8.378;2023-06-14T01:33:31;9.30;61.20
49236;DHT22;35067;48.134;8.378;2023-06-14T01:34:32;9.30;61.20
49236;DHT22;35067;48.134;8.378;2023-06-14T01:35:32;9.30;61.10
49236;DHT22;35067;48.134;8.378;2023-06-14T01:36:34;9.30;61.30
49236;DHT22;35067;48.134;8.378;2023-06-14T01:37:38;9.30;61.50
49236;DHT22;35067;48.134;8.378;2023-06-14T01:38:42;9.30;61.30
49236;DHT22;35067;48.134;8.378;2023-06-14T01:39:44;9.20;60.30
49236;DHT22;35067;48.134;8.378;2023-06-14T01:40:45;9.20;60.00
49236;DHT22;35067;48.134;8.378;2023-06-14T01:41:47;9.30;60.20
49236;DHT22;35067;48.134;8.378;2023-06-14T01:42:50;9.20;60.30
49236;DHT22;35067;48.134;8.378;2023-06-14T01:43:52;9.20;60.50
49236;DHT22;35067;48.134;8.378;2023-06-14T01:44:53;9.20;62.20
49236;DHT22;35067;48.134;8.378;2023-06-14T01:45:54;9.20;60.60
49236;DHT22;35067;48.134;8.378;2023-06-14T01:46:56;9.20;60.30
49236;DHT22;35067;48.134;8.378;2023-06-14T01:47:57;9.20;60.60
49236;DHT22;35067;48.134;8.378;2023-06-14T01:48:59;9.20;61.00
49236;DHT22;35067;48.134;8.378;2023-06-14T01:50:01;9.20;60.60
49236;DHT22;35067;48.134;8.378;2023-06-14T01:51:03;9.20;60.40
49236;DHT22;35067;48.134;8.378;2023-06-14T01:52:03;9.20;60.30
49236;DHT22;35067;48.134;8.378;2023-06-14T01:53:08;9.20;60.40
49236;DHT22;35067;48.134;8.378;2023-06-14T01:54:09;9.20;60.60
49236;DHT22;35067;48.134;8.378;2023-06-14T01:55:10;9.20;60.60
49236;DHT22;35067;48.134;8.378;2023-06-14T01:56:11;9.10;60.80
49236;DHT22;35067;48.134;8.378;2023-06-14T01:57:12;9.10;60.80
49236;DHT22;35067;48.134;8.378;2023-06-14T01:58:12;9.10;60.90
49236;DHT22;35067;48.134;8.378;2023-06-14T01:59:14;9.20;61.00
49236;DHT22;35067;48.134;8.378;2023-06-14T02:00:15;9.10;60.90
49236;DHT22;35067;48.134;8.378;2023-06-14T02:01:16;9.10;61.10
49236;DHT22;35067;48.134;8.378;2023-06-14T02:02:17;9.10;61.40
49236;DHT22;35067;48.134;8.378;2023-06-14T02:03:18;9.10;61.40
49236;DHT22;35067;48.134;8.378;2023-06-14T02:04:19;9.10;61.70
49236;DHT22;35067;48.134;8.378;2023-06-14T02:05:20;9.10;62.10
49236;DHT22;35067;48.134;8.378;2023-06-14T02:06:21;9.10;62.20
49236;DHT22;35067;48.134;8.378;2023-06-14T02:07:22;9.00;62.50
49236;DHT22;35067;48.134;8.378;2023-06-14T02:08:22;9.00;62.60
49236;DHT22;35067;48.134;8.378;2023-06-14T02:09:23;9.00;62.60
49236;DHT22;35067;48.134;8.378;2023-06-14T02:10:24;9.00;62.70
49236;DHT22;35067;48.134;8.378;2023-06-14T02:11:25;9.00;62.90
49236;DHT22;35067;48.134;8.378;2023-06-14T02:12:26;9.00;63.10
49236;DHT22;35067;48.134;8.378;2023-06-14T02:13:26;8.90;63.30
49236;DHT22;35067;48.134;8.378;2023-06-14T02:14:28;8.90;63.40
49236;DHT22;35067;48.134;8.378;2023-06-14T02:15:29;8.90;63.60
49236;DHT22;35067;48.134;8.378;2023-06-14T02:16:34;8.90;63.30
49236;DHT22;35067;48.134;8.378;2023-06-14T02:17:36;8.90;63.50
49236;DHT22;35067;48.134;8.378;2023-06-14T02:18:36;8.90;63.50
49236;DHT22;35067;48.134;8.378;2023-06-14T02:19:37;8.90;63.40
49236;DHT22;35067;48.134;8.378;2023-06-14T02:20:39;8.80;63.60
49236;DHT22;35067;48.134;8.378;2023-06-14T02:21:39;8.70;63.80
49236;DHT22;35067;48.134;8.378;2023-06-14T02:22:40;8.70;64.10
49236;DHT22;35067;48.134;8.378;2023-06-14T02:23:41;8.70;64.10
49236;DHT22;35067;48.134;8.378;2023-06-14T02:24:42;8.80;64.00
49236;DHT22;35067;48.134;8.378;2023-06-14T02:25:43;8.70;63.80
49236;DHT22;35067;48.134;8.378;2023-06-14T02:26:46;8.70;64.40
49236;DHT22;35067;48.134;8.378;2023-06-14T02:27:47;8.80;64.20
49236;DHT22;35067;48.134;8.378;2023-06-14T02:28:47;8.80;64.70
49236;DHT22;35067;48.134;8.378;2023-06-14T02:29:49;8.80;64.90
49236;DHT22;35067;48.134;8.378;2023-06-14T02:30:49;8.80;64.70
49236;DHT22;35067;48.134;8.378;2023-06-14T02:31:50;8.80;64.80
49236;DHT22;35067;48.134;8.378;2023-06-14T02:32:51;8.80;64.40
49236;DHT22;35067;48.134;8.378;2023-06-14T02:33:51;8.80;64.30
49236;DHT22;35067;48.134;8.378;2023-06-14T02:34:52;8.80;64.20
49236;DHT22;35067;48.134;8.378;2023-06-14T02:35:53;8.80;63.60
49236;DHT22;35067;48.134;8.378;2023-06-14T02:36:56;8.80;63.70
49236;DHT22;35067;48.134;8.378;2023-06-14T02:37:57;8.80;63.90
49236;DHT22;35067;48.134;8.378;2023-06-14T02:38:58;8.80;64.00
49236;DHT22;35067;48.134;8.378;2023-06-14T02:39:59;8.80;64.40
49236;DHT22;35067;48.134;8.378;2023-06-14T02:41:01;8.80;64.50
49236;DHT22;35067;48.134;8.378;2023-06-14T02:42:02;8.80;64.30
49236;DHT22;35067;48.134;8.378;2023-06-14T02:43:03;8.70;64.40
49236;DHT22;35067;48.134;8.378;2023-06-14T02:44:04;8.70;64.40
49236;DHT22;35067;48.134;8.378;2023-06-14T02:45:05;8.70;64.80
49236;DHT22;35067;48.134;8.378;2023-06-14T02:46:06;8.70;65.00
49236;DHT22;35067;48.134;8.378;2023-06-14T02:47:07;8.70;65.00
49236;DHT22;35067;48.134;8.378;2023-06-14T02:48:08;8.70;64.90
49236;DHT22;35067;48.134;8.378;2023-06-14T02:49:09;8.70;64.80
49236;DHT22;35067;48.134;8.378;2023-06-14T02:50:10;8.70;64.90
49236;DHT22;35067;48.134;8.378;2023-06-14T02:51:11;8.70;64.60
49236;DHT22;35067;48.134;8.378;2023-06-14T02:52:13;8.60;64.40
49236;DHT22;35067;48.134;8.378;2023-06-14T02:53:14;8.60;64.00
49236;DHT22;35067;48.134;8.378;2023-06-14T02:54:16;8.70;63.80
49236;DHT22;35067;48.134;8.378;2023-06-14T02:55:17;8.70;63.50
49236;DHT22;35067;48.134;8.378;2023-06-14T02:56:17;8.70;63.50
49236;DHT22;35067;48.134;8.378;2023-06-14T02:57:20;8.80;63.80
49236;DHT22;35067;48.134;8.378;2023-06-14T02:58:22;8.80;63.90
49236;DHT22;35067;48.134;8.378;2023-06-14T02:59:25;8.80;64.20
49236;DHT22;35067;48.134;8.378;2023-06-14T03:00:26;8.70;64.30
49236;DHT22;35067;48.134;8.378;2023-06-14T03:01:31;8.80;64.60
49236;DHT22;35067;48.134;8.378;2023-06-14T03:02:35;8.80;64.80
49236;DHT22;35067;48.134;8.378;2023-06-14T03:03:36;8.70;64.70
49236;DHT22;35067;48.134;8.378;2023-06-14T03:04:37;8.70;65.00
49236;DHT22;35067;48.134;8.378;2023-06-14T03:05:40;8.70;65.00
49236;DHT22;35067;48.134;8.378;2023-06-14T03:06:46;8.70;65.40
49236;DHT22;35067;48.134;8.378;2023-06-14T03:07:50;8.60;65.50
49236;DHT22;35067;48.134;8.378;2023-06-14T03:08:51;8.60;65.80
49236;DHT22;35067;48.134;8.378;2023-06-14T03:09:55;8.50;66.10
49236;DHT22;35067;48.134;8.378;2023-06-14T03:10:56;8.50;66.20
49236;DHT22;35067;48.134;8.378;2023-06-14T03:11:56;8.60;66.50
49236;DHT22;35067;48.134;8.378;2023-06-14T03:12:59;8.60;66.80
49236;DHT22;35067;48.134;8.378;2023-06-14T03:14:01;8.50;66.60
49236;DHT22;35067;48.134;8.378;2023-06-14T03:15:04;8.50;66.60
49236;DHT22;35067;48.134;8.378;2023-06-14T03:16:06;8.50;66.50
49236;DHT22;35067;48.134;8.378;2023-06-14T03:17:07;8.50;65.90
49236;DHT22;35067;48.134;8.378;2023-06-14T03:18:10;8.50;65.90
49236;DHT22;35067;48.134;8.378;2023-06-14T03:19:12;8.40;66.10
49236;DHT22;35067;48.134;8.378;2023-06-14T03:20:13;8.40;66.50
49236;DHT22;35067;48.134;8.378;2023-06-14T03:21:16;8.40;67.10
49236;DHT22;35067;48.134;8.378;2023-06-14T03:22:17;8.30;67.80
49236;DHT22;35067;48.134;8.378;2023-06-14T03:23:17;8.30;67.70
49236;DHT22;35067;48.134;8.378;2023-06-14T03:24:18;8.30;67.80
49236;DHT22;35067;48.134;8.378;2023-06-14T03:25:20;8.30;68.10
49236;DHT22;35067;48.134;8.378;2023-06-14T03:26:22;8.20;68.30
49236;DHT22;35067;48.134;8.378;2023-06-14T03:27:22;8.30;68.10
49236;DHT22;35067;48.134;8.378;2023-06-14T03:28:24;8.30;67.70
49236;DHT22;35067;48.134;8.378;2023-06-14T03:29:25;8.40;67.50
49236;DHT22;35067;48.134;8.378;2023-06-14T03:30:26;8.30;67.60
49236;DHT22;35067;48.134;8.378;2023-06-14T03:31:28;8.40;67.50
49236;DHT22;35067;48.134;8.378;2023-06-14T03:32:32;8.40;67.40
49236;DHT22;35067;48.134;8.378;2023-06-14T03:33:33;8.40;67.30
49236;DHT22;35067;48.134;8.378;2023-06-14T03:34:34;8.40;67.00
49236;DHT22;35067;48.134;8.378;2023-06-14T03:35:35;8.40;66.60
49236;DHT22;35067;48.134;8.378;2023-06-14T03:36:36;8.50;66.20
49236;DHT22;35067;48.134;8.378;2023-06-14T03:37:38;8.50;66.00
49236;DHT22;35067;48.134;8.378;2023-06-14T03:38:38;8.50;65.90
49236;DHT22;35067;48.134;8.378;2023-06-14T03:39:39;8.50;65.80
49236;DHT22;35067;48.134;8.378;2023-06-14T03:40:46;8.50;65.60
49236;DHT22;35067;48.134;8.378;2023-06-14T03:41:47;8.50;65.40
49236;DHT22;35067;48.134;8.378;2023-06-14T03:42:48;8.50;65.70
49236;DHT22;35067;48.134;8.378;2023-06-14T03:43:48;8.50;65.90
49236;DHT22;35067;48.134;8.378;2023-06-14T03:44:49;8.50;65.80
49236;DHT22;35067;48.134;8.378;2023-06-14T03:45:50;8.60;65.60
49236;DHT22;35067;48.134;8.378;2023-06-14T03:46:52;8.60;65.30
49236;DHT22;35067;48.134;8.378;2023-06-14T03:47:53;8.60;66.70
49236;DHT22;35067;48.134;8.378;2023-06-14T03:48:54;8.60;65.90
49236;DHT22;35067;48.134;8.378;2023-06-14T03:49:56;8.70;65.70
49236;DHT22;35067;48.134;8.378;2023-06-14T03:50:56;8.60;65.70
49236;DHT22;35067;48.134;8.378;2023-06-14T03:51:58;8.50;66.00
49236;DHT22;35067;48.134;8.378;2023-06-14T03:53:00;8.50;66.50
49236;DHT22;35067;48.134;8.378;2023-06-14T03:54:01;8.50;67.00
49236;DHT22;35067;48.134;8.378;2023-06-14T03:55:02;8.50;67.10
49236;DHT22;35067;48.134;8.378;2023-06-14T03:56:03;8.50;66.80
49236;DHT22;35067;48.134;8.378;2023-06-14T03:57:04;8.60;66.30
49236;DHT22;35067;48.134;8.378;2023-06-14T03:58:06;8.60;66.00
49236;DHT22;35067;48.134;8.378;2023-06-14T03:59:07;8.70;65.80
49236;DHT22;35067;48.134;8.378;2023-06-14T04:00:11;8.70;66.70
49236;DHT22;35067;48.134;8.378;2023-06-14T04:01:13;8.60;65.80
49236;DHT22;35067;48.134;8.378;2023-06-14T04:02:14;8.60;66.00
49236;DHT22;35067;48.134;8.378;2023-06-14T04:03:18;8.70;65.70
49236;DHT22;35067;48.134;8.378;2023-06-14T04:04:20;8.80;65.80
49236;DHT22;35067;48.134;8.378;2023-06-14T04:05:21;8.70;65.70
49236;DHT22;35067;48.134;8.378;2023-06-14T04:06:26;8.80;65.60
49236;DHT22;35067;48.134;8.378;2023-06-14T04:07:32;8.90;65.30
49236;DHT22;35067;48.134;8.378;2023-06-14T04:08:40;8.90;65.00
49236;DHT22;35067;48.134;8.378;2023-06-14T04:09:41;8.90;65.00
49236;DHT22;35067;48.134;8.378;2023-06-14T04:10:42;8.90;65.40
49236;DHT22;35067;48.134;8.378;2023-06-14T04:11:43;8.90;65.60
49236;DHT22;35067;48.134;8.378;2023-06-14T04:12:44;8.90;65.60
49236;DHT22;35067;48.134;8.378;2023-06-14T04:13:45;8.80;65.80
49236;DHT22;35067;48.134;8.378;2023-06-14T04:14:46;8.80;66.10
49236;DHT22;35067;48.134;8.378;2023-06-14T04:15:46;8.90;66.50
49236;DHT22;35067;48.134;8.378;2023-06-14T04:16:48;8.90;66.70
49236;DHT22;35067;48.134;8.378;2023-06-14T04:17:51;8.90;66.50
49236;DHT22;35067;48.134;8.378;2023-06-14T04:18:51;8.90;66.60
49236;DHT22;35067;48.134;8.378;2023-06-14T04:19:52;9.00;66.80
49236;DHT22;35067;48.134;8.378;2023-06-14T04:20:53;9.00;68.30
49236;DHT22;35067;48.134;8.378;2023-06-14T04:21:54;9.00;67.30
49236;DHT22;35067;48.134;8.378;2023-06-14T04:22:56;9.00;67.40
49236;DHT22;35067;48.134;8.378;2023-06-14T04:23:57;9.00;67.10
49236;DHT22;35067;48.134;8.378;2023-06-14T04:24:59;8.90;67.00
49236;DHT22;35067;48.134;8.378;2023-06-14T04:26:00;8.80;67.50
49236;DHT22;35067;48.134;8.378;2023-06-14T04:27:03;8.80;67.60
49236;DHT22;35067;48.134;8.378;2023-06-14T04:28:04;8.80;67.50
49236;DHT22;35067;48.134;8.378;2023-06-14T04:29:06;8.80;67.00
49236;DHT22;35067;48.134;8.378;2023-06-14T04:30:07;8.90;67.00
49236;DHT22;35067;48.134;8.378;2023-06-14T04:31:08;8.90;66.20
49236;DHT22;35067;48.134;8.378;2023-06-14T04:32:10;9.00;66.10
49236;DHT22;35067;48.134;8.378;2023-06-14T04:33:13;9.10;65.90
49236;DHT22;35067;48.134;8.378;2023-06-14T04:34:15;9.10;65.40
49236;DHT22;35067;48.134;8.378;2023-06-14T04:35:18;9.30;65.20
49236;DHT22;35067;48.134;8.378;2023-06-14T04:36:21;9.30;64.80
49236;DHT22;35067;48.134;8.378;2023-06-14T04:37:23;9.30;64.70
49236;DHT22;35067;48.134;8.378;2023-06-14T04:38:24;9.30;64.60
49236;DHT22;35067;48.134;8.378;2023-06-14T04:39:25;9.30;64.60
49236;DHT22;35067;48.134;8.378;2023-06-14T04:40:26;9.30;64.80
49236;DHT22;35067;48.134;8.378;2023-06-14T04:41:27;9.40;65.20
49236;DHT22;35067;48.134;8.378;2023-06-14T04:42:30;9.50;64.60
49236;DHT22;35067;48.134;8.378;2023-06-14T04:43:32;9.50;64.60
49236;DHT22;35067;48.134;8.378;2023-06-14T04:44:38;9.60;63.80
49236;DHT22;35067;48.134;8.378;2023-06-14T04:45:40;9.70;64.10
49236;DHT22;35067;48.134;8.378;2023-06-14T04:46:41;9.80;63.30
49236;DHT22;35067;48.134;8.378;2023-06-14T04:47:46;9.80;63.30
49236;DHT22;35067;48.134;8.378;2023-06-14T04:48:47;9.80;63.00
49236;DHT22;35067;48.134;8.378;2023-06-14T04:49:48;9.90;62.40
49236;DHT22;35067;48.134;8.378;2023-06-14T04:50:51;9.90;62.00
49236;DHT22;35067;48.134;8.378;2023-06-14T04:51:53;10.00;61.50
49236;DHT22;35067;48.134;8.378;2023-06-14T04:53:01;10.00;61.60
49236;DHT22;35067;48.134;8.378;2023-06-14T04:54:03;10.00;61.60
49236;DHT22;35067;48.134;8.378;2023-06-14T04:55:05;10.10;61.00
49236;DHT22;35067;48.134;8.378;2023-06-14T04:56:07;10.10;61.90
49236;DHT22;35067;48.134;8.378;2023-06-14T04:57:08;10.10;60.70
49236;DHT22;35067;48.134;8.378;2023-06-14T04:58:14;10.10;60.50
49236;DHT22;35067;48.134;8.378;2023-06-14T04:59:14;10.20;60.50
49236;DHT22;35067;48.134;8.378;2023-06-14T05:00:17;10.20;60.70
49236;DHT22;35067;48.134;8.378;2023-06-14T05:01:19;10.20;60.60
49236;DHT22;35067;48.134;8.378;2023-06-14T05:02:24;10.30;60.10
49236;DHT22;35067;48.134;8.378;2023-06-14T05:03:25;10.30;60.30
49236;DHT22;35067;48.134;8.378;2023-06-14T05:04:28;10.40;59.90
49236;DHT22;35067;48.134;8.378;2023-06-14T05:05:29;10.50;60.10
49236;DHT22;35067;48.134;8.378;2023-06-14T05:06:30;10.50;59.70
49236;DHT22;35067;48.134;8.378;2023-06-14T05:07:32;10.50;59.30
49236;DHT22;35067;48.134;8.378;2023-06-14T05:08:35;10.60;59.30
49236;DHT22;35067;48.134;8.378;2023-06-14T05:09:36;10.60;58.90
49236;DHT22;35067;48.134;8.378;2023-06-14T05:10:36;10.70;58.90
49236;DHT22;35067;48.134;8.378;2023-06-14T05:11:37;10.70;59.00
49236;DHT22;35067;48.134;8.378;2023-06-14T05:12:38;10.70;59.50
49236;DHT22;35067;48.134;8.378;2023-06-14T05:13:39;10.70;59.30
49236;DHT22;35067;48.134;8.378;2023-06-14T05:14:41;10.80;59.10
49236;DHT22;35067;48.134;8.378;2023-06-14T05:15:42;10.80;59.30
49236;DHT22;35067;48.134;8.378;2023-06-14T05:16:43;10.80;59.20
49236;DHT22;35067;48.134;8.378;2023-06-14T05:17:45;10.90;59.50
49236;DHT22;35067;48.134;8.378;2023-06-14T05:18:55;10.90;59.60
49236;DHT22;35067;48.134;8.378;2023-06-14T05:19:56;10.90;59.20
49236;DHT22;35067;48.134;8.378;2023-06-14T05:20:57;10.90;59.20
49236;DHT22;35067;48.134;8.378;2023-06-14T05:21:58;10.90;59.40
49236;DHT22;35067;48.134;8.378;2023-06-14T05:22:58;10.80;60.10
49236;DHT22;35067;48.134;8.378;2023-06-14T05:24:00;11.00;59.40
49236;DHT22;35067;48.134;8.378;2023-06-14T05:25:01;11.00;59.50
49236;DHT22;35067;48.134;8.378;2023-06-14T05:26:03;11.00;59.30
49236;DHT22;35067;48.134;8.378;2023-06-14T05:27:05;11.00;59.80
49236;DHT22;35067;48.134;8.378;2023-06-14T05:28:05;11.00;60.20
49236;DHT22;35067;48.134;8.378;2023-06-14T05:29:07;11.10;60.80
49236;DHT22;35067;48.134;8.378;2023-06-14T05:30:08;11.00;60.10
49236;DHT22;35067;48.134;8.378;2023-06-14T05:31:10;11.10;60.30
49236;DHT22;35067;48.134;8.378;2023-06-14T05:32:10;11.10;60.10
49236;DHT22;35067;48.134;8.378;2023-06-14T05:33:11;11.10;59.40
49236;DHT22;35067;48.134;8.378;2023-06-14T05:34:12;11.10;59.50
49236;DHT22;35067;48.134;8.378;2023-06-14T05:35:13;11.30;59.20
49236;DHT22;35067;48.134;8.378;2023-06-14T05:36:13;11.20;59.20
49236;DHT22;35067;48.134;8.378;2023-06-14T05:37:14;11.30;59.20
49236;DHT22;35067;48.134;8.378;2023-06-14T05:38:15;11.40;59.20
49236;DHT22;35067;48.134;8.378;2023-06-14T05:39:16;11.50;59.30
49236;DHT22;35067;48.134;8.378;2023-06-14T05:40:17;11.50;59.30
49236;DHT22;35067;48.134;8.378;2023-06-14T05:41:18;11.60;59.70
49236;DHT22;35067;48.134;8.378;2023-06-14T05:42:21;11.60;59.50
49236;DHT22;35067;48.134;8.378;2023-06-14T05:43:22;11.60;60.00
49236;DHT22;35067;48.134;8.378;2023-06-14T05:44:23;11.60;60.30
49236;DHT22;35067;48.134;8.378;2023-06-14T05:45:24;11.70;60.40
49236;DHT22;35067;48.134;8.378;2023-06-14T05:46:25;11.60;60.80
49236;DHT22;35067;48.134;8.378;2023-06-14T05:47:26;11.60;62.00
49236;DHT22;35067;48.134;8.378;2023-06-14T05:48:28;11.70;61.30
49236;DHT22;35067;48.134;8.378;2023-06-14T05:49:30;11.90;61.00
49236;DHT22;35067;48.134;8.378;2023-06-14T05:50:31;11.80;60.70
49236;DHT22;35067;48.134;8.378;2023-06-14T05:51:32;11.90;61.10
49236;DHT22;35067;48.134;8.378;2023-06-14T05:52:34;11.90;60.80
49236;DHT22;35067;48.134;8.378;2023-06-14T05:53:37;11.90;61.10
49236;DHT22;35067;48.134;8.378;2023-06-14T05:54:40;11.90;61.20
49236;DHT22;35067;48.134;8.378;2023-06-14T05:55:41;11.90;62.00
49236;DHT22;35067;48.134;8.378;2023-06-14T05:56:42;11.90;61.70
49236;DHT22;35067;48.134;8.378;2023-06-14T05:57:43;11.90;61.70
49236;DHT22;35067;48.134;8.378;2023-06-14T05:58:45;12.00;61.70
49236;DHT22;35067;48.134;8.378;2023-06-14T05:59:47;12.10;61.30
49236;DHT22;35067;48.134;8.378;2023-06-14T06:00:48;12.10;60.20
49236;DHT22;35067;48.134;8.378;2023-06-14T06:01:48;12.20;59.60
49236;DHT22;35067;48.134;8.378;2023-06-14T06:02:49;12.20;60.20
49236;DHT22;35067;48.134;8.378;2023-06-14T06:03:50;12.10;60.50
49236;DHT22;35067;48.134;8.378;2023-06-14T06:04:51;12.20;60.50
49236;DHT22;35067;48.134;8.378;2023-06-14T06:05:52;12.20;60.30
49236;DHT22;35067;48.134;8.378;2023-06-14T06:06:53;12.30;59.90
49236;DHT22;35067;48.134;8.378;2023-06-14T06:07:53;12.40;59.00
49236;DHT22;35067;48.134;8.378;2023-06-14T06:08:54;12.50;59.50
49236;DHT22;35067;48.134;8.378;2023-06-14T06:09:56;12.70;57.90
49236;DHT22;35067;48.134;8.378;2023-06-14T06:10:57;12.80;56.60
49236;DHT22;35067;48.134;8.378;2023-06-14T06:11:57;12.80;55.60
49236;DHT22;35067;48.134;8.378;2023-06-14T06:12:58;12.90;55.20
49236;DHT22;35067;48.134;8.378;2023-06-14T06:13:59;13.00;55.00
49236;DHT22;35067;48.134;8.378;2023-06-14T06:15:00;13.00;53.50
49236;DHT22;35067;48.134;8.378;2023-06-14T06:16:02;13.10;53.50
49236;DHT22;35067;48.134;8.378;2023-06-14T06:17:04;13.30;52.50
49236;DHT22;35067;48.134;8.378;2023-06-14T06:18:05;13.40;52.30
49236;DHT22;35067;48.134;8.378;2023-06-14T06:19:06;13.50;52.80
49236;DHT22;35067;48.134;8.378;2023-06-14T06:20:07;13.60;53.00
49236;DHT22;35067;48.134;8.378;2023-06-14T06:21:12;13.60;52.10
49236;DHT22;35067;48.134;8.378;2023-06-14T06:22:13;13.70;50.90
49236;DHT22;35067;48.134;8.378;2023-06-14T06:23:13;13.90;50.80
49236;DHT22;35067;48.134;8.378;2023-06-14T06:24:15;14.00;50.70
49236;DHT22;35067;48.134;8.378;2023-06-14T06:25:16;14.10;51.10
49236;DHT22;35067;48.134;8.378;2023-06-14T06:26:17;14.20;50.80
49236;DHT22;35067;48.134;8.378;2023-06-14T06:27:18;14.30;50.20
49236;DHT22;35067;48.134;8.378;2023-06-14T06:28:20;14.30;50.00
49236;DHT22;35067;48.134;8.378;2023-06-14T06:29:21;14.30;48.60
49236;DHT22;35067;48.134;8.378;2023-06-14T06:30:22;14.30;49.90
49236;DHT22;35067;48.134;8.378;2023-06-14T06:31:23;14.20;50.80
49236;DHT22;35067;48.134;8.378;2023-06-14T06:32:24;14.00;50.30
49236;DHT22;35067;48.134;8.378;2023-06-14T06:33:25;14.10;50.90
49236;DHT22;35067;48.134;8.378;2023-06-14T06:34:26;14.20;49.20
49236;DHT22;35067;48.134;8.378;2023-06-14T06:35:27;14.40;49.80
49236;DHT22;35067;48.134;8.378;2023-06-14T06:36:27;14.50;49.40
49236;DHT22;35067;48.134;8.378;2023-06-14T06:37:28;14.50;52.40
49236;DHT22;35067;48.134;8.378;2023-06-14T06:38:29;14.60;50.80